If you wish to contribute or participate in the discussions about articles you are invited to join SKYbrary as a registered user

 Actions

Broome International Airport

From SKYbrary Wiki

YBRM
Airport
ICAO: YBRM – IATA: BME
Summary
Name Broome International Airport
Region Asia and Pacific
Territory Australia AU.gif
Location Broome, Western Australia
Serving Broome
Elevation 17.069 m
56 ft17.069 m
Coordinates 17° 57' 9.20" S, 122° 14' 1.58" E
Runways
Designator Length Width Surface ROPS
10/28 2458 m8,064.304 ft
45 m147.638 ft
ASP yes/yes


METAR
Observation YBRM 161400Z AUTO 27009KT 9999 // NCD 29/25 Q1012
Station Broome Airport
Date/Time 16 April 2019 14:00:00
Wind direction 270°
Wind speed 09 kts
Lowest cloud amount no clouds detected
Temperature 29°C
Dew point 25°C
Humidity 79%
QNH 1012 hPa
Weather condition n/a

Broome International Airport is a regional airport located 0.74 km0.4 nm
740 m
2,427.822 ft
west of the Broome GPO, Western Australia.

Climatology

Hot semi-arid climate (Köppen climate classification BSh)

Maps

Terrain

Loading map...

Airport Layout

Loading map...


Accidents & Serious Incidents at or in vicinity of YBRM

None on SKYbrary